sensor_id;sensor_type;location;lat;lon;timestamp;P1;durP1;ratioP1;P2;durP2;ratioP2
51800;SDS011;37855;53.204;6.568;2022-08-21T00:00:21;9.70;;;2.72;;
51800;SDS011;37855;53.204;6.568;2022-08-21T00:02:59;10.45;;;2.70;;
51800;SDS011;37855;53.204;6.568;2022-08-21T00:05:31;9.98;;;2.83;;
51800;SDS011;37855;53.204;6.568;2022-08-21T00:08:00;8.35;;;3.20;;
51800;SDS011;37855;53.204;6.568;2022-08-21T00:10:26;7.45;;;2.72;;
51800;SDS011;37855;53.204;6.568;2022-08-21T00:12:52;13.57;;;3.00;;
51800;SDS011;37855;53.204;6.568;2022-08-21T00:15:19;6.70;;;2.70;;
51800;SDS011;37855;53.204;6.568;2022-08-21T00:17:51;13.65;;;3.33;;
51800;SDS011;37855;53.204;6.568;2022-08-21T00:20:18;10.10;;;3.00;;
51800;SDS011;37855;53.204;6.568;2022-08-21T00:22:44;10.93;;;2.80;;
51800;SDS011;37855;53.204;6.568;2022-08-21T00:25:11;9.80;;;3.30;;
51800;SDS011;37855;53.204;6.568;2022-08-21T00:27:38;10.02;;;2.90;;
51800;SDS011;37855;53.204;6.568;2022-08-21T00:30:05;11.02;;;2.97;;
51800;SDS011;37855;53.204;6.568;2022-08-21T00:32:32;12.18;;;3.20;;
51800;SDS011;37855;53.204;6.568;2022-08-21T00:34:58;9.85;;;3.00;;
51800;SDS011;37855;53.204;6.568;2022-08-21T00:37:24;8.32;;;3.10;;
51800;SDS011;37855;53.204;6.568;2022-08-21T00:39:52;8.35;;;3.20;;
51800;SDS011;37855;53.204;6.568;2022-08-21T00:42:18;9.55;;;3.25;;
51800;SDS011;37855;53.204;6.568;2022-08-21T00:44:45;10.55;;;3.70;;
51800;SDS011;37855;53.204;6.568;2022-08-21T00:47:15;11.63;;;3.60;;
51800;SDS011;37855;53.204;6.568;2022-08-21T00:49:41;10.25;;;3.65;;
51800;SDS011;37855;53.204;6.568;2022-08-21T00:52:09;9.15;;;3.35;;
51800;SDS011;37855;53.204;6.568;2022-08-21T00:54:40;7.35;;;3.13;;
51800;SDS011;37855;53.204;6.568;2022-08-21T00:57:09;8.23;;;3.22;;
51800;SDS011;37855;53.204;6.568;2022-08-21T00:59:41;11.98;;;3.55;;
51800;SDS011;37855;53.204;6.568;2022-08-21T01:02:10;15.10;;;3.95;;
51800;SDS011;37855;53.204;6.568;2022-08-21T01:04:37;8.65;;;3.58;;
51800;SDS011;37855;53.204;6.568;2022-08-21T01:07:02;14.13;;;3.58;;
51800;SDS011;37855;53.204;6.568;2022-08-21T01:09:28;9.80;;;3.60;;
51800;SDS011;37855;53.204;6.568;2022-08-21T01:11:55;6.95;;;3.20;;
51800;SDS011;37855;53.204;6.568;2022-08-21T01:14:25;12.27;;;3.30;;
51800;SDS011;37855;53.204;6.568;2022-08-21T01:16:51;8.25;;;3.40;;
51800;SDS011;37855;53.204;6.568;2022-08-21T01:19:19;10.40;;;3.20;;
51800;SDS011;37855;53.204;6.568;2022-08-21T01:21:46;9.80;;;3.38;;
51800;SDS011;37855;53.204;6.568;2022-08-21T01:24:12;10.63;;;3.70;;
51800;SDS011;37855;53.204;6.568;2022-08-21T01:26:39;7.63;;;3.08;;
51800;SDS011;37855;53.204;6.568;2022-08-21T01:31:57;14.13;;;3.92;;
51800;SDS011;37855;53.204;6.568;2022-08-21T01:34:25;12.40;;;3.35;;
51800;SDS011;37855;53.204;6.568;2022-08-21T01:36:51;9.23;;;3.45;;
51800;SDS011;37855;53.204;6.568;2022-08-21T01:39:17;14.20;;;3.28;;
51800;SDS011;37855;53.204;6.568;2022-08-21T01:41:42;8.60;;;3.45;;
51800;SDS011;37855;53.204;6.568;2022-08-21T01:44:08;12.77;;;3.90;;
51800;SDS011;37855;53.204;6.568;2022-08-21T01:46:34;13.98;;;3.45;;
51800;SDS011;37855;53.204;6.568;2022-08-21T01:49:00;9.27;;;3.60;;
51800;SDS011;37855;53.204;6.568;2022-08-21T01:51:26;10.38;;;3.47;;
51800;SDS011;37855;53.204;6.568;2022-08-21T01:53:51;9.48;;;3.35;;
51800;SDS011;37855;53.204;6.568;2022-08-21T01:56:17;13.30;;;3.45;;
51800;SDS011;37855;53.204;6.568;2022-08-21T01:58:43;7.75;;;2.90;;
51800;SDS011;37855;53.204;6.568;2022-08-21T02:01:13;10.35;;;3.78;;
51800;SDS011;37855;53.204;6.568;2022-08-21T02:03:39;11.68;;;3.60;;
51800;SDS011;37855;53.204;6.568;2022-08-21T02:06:06;11.98;;;3.88;;
51800;SDS011;37855;53.204;6.568;2022-08-21T02:08:36;9.40;;;3.35;;
51800;SDS011;37855;53.204;6.568;2022-08-21T02:11:02;11.85;;;3.88;;
51800;SDS011;37855;53.204;6.568;2022-08-21T02:13:28;12.55;;;3.40;;
51800;SDS011;37855;53.204;6.568;2022-08-21T02:15:54;11.30;;;3.45;;
51800;SDS011;37855;53.204;6.568;2022-08-21T02:18:19;12.43;;;3.90;;
51800;SDS011;37855;53.204;6.568;2022-08-21T02:20:47;11.63;;;3.75;;
51800;SDS011;37855;53.204;6.568;2022-08-21T02:23:14;11.45;;;3.85;;
51800;SDS011;37855;53.204;6.568;2022-08-21T02:25:40;12.27;;;3.53;;
51800;SDS011;37855;53.204;6.568;2022-08-21T02:28:08;14.63;;;3.95;;
51800;SDS011;37855;53.204;6.568;2022-08-21T02:30:38;10.82;;;4.20;;
51800;SDS011;37855;53.204;6.568;2022-08-21T02:33:06;10.25;;;3.67;;
51800;SDS011;37855;53.204;6.568;2022-08-21T02:35:34;10.00;;;3.78;;
51800;SDS011;37855;53.204;6.568;2022-08-21T02:38:02;8.88;;;3.58;;
51800;SDS011;37855;53.204;6.568;2022-08-21T02:40:32;8.40;;;3.60;;
51800;SDS011;37855;53.204;6.568;2022-08-21T02:43:01;10.77;;;3.75;;
51800;SDS011;37855;53.204;6.568;2022-08-21T02:45:29;12.15;;;4.03;;
51800;SDS011;37855;53.204;6.568;2022-08-21T02:47:57;12.48;;;4.68;;
51800;SDS011;37855;53.204;6.568;2022-08-21T02:50:28;8.93;;;3.60;;
51800;SDS011;37855;53.204;6.568;2022-08-21T02:52:56;13.23;;;3.85;;
51800;SDS011;37855;53.204;6.568;2022-08-21T02:55:23;11.70;;;4.05;;
51800;SDS011;37855;53.204;6.568;2022-08-21T02:57:51;11.40;;;4.32;;
51800;SDS011;37855;53.204;6.568;2022-08-21T03:00:18;8.05;;;3.83;;
51800;SDS011;37855;53.204;6.568;2022-08-21T03:02:45;8.13;;;3.38;;
51800;SDS011;37855;53.204;6.568;2022-08-21T03:05:12;11.50;;;3.80;;
51800;SDS011;37855;53.204;6.568;2022-08-21T03:07:40;9.27;;;3.75;;
51800;SDS011;37855;53.204;6.568;2022-08-21T03:10:06;9.43;;;4.32;;
51800;SDS011;37855;53.204;6.568;2022-08-21T03:12:33;10.63;;;3.95;;
51800;SDS011;37855;53.204;6.568;2022-08-21T03:15:05;8.02;;;3.20;;
51800;SDS011;37855;53.204;6.568;2022-08-21T03:17:33;9.77;;;3.33;;
51800;SDS011;37855;53.204;6.568;2022-08-21T03:19:59;10.52;;;3.35;;
51800;SDS011;37855;53.204;6.568;2022-08-21T03:22:25;9.30;;;3.20;;
51800;SDS011;37855;53.204;6.568;2022-08-21T03:24:52;9.68;;;2.92;;
51800;SDS011;37855;53.204;6.568;2022-08-21T03:27:18;10.88;;;3.05;;
51800;SDS011;37855;53.204;6.568;2022-08-21T03:29:44;7.75;;;3.15;;
51800;SDS011;37855;53.204;6.568;2022-08-21T03:32:09;9.95;;;3.20;;
51800;SDS011;37855;53.204;6.568;2022-08-21T03:34:36;9.32;;;2.90;;
51800;SDS011;37855;53.204;6.568;2022-08-21T03:37:03;10.00;;;3.35;;
51800;SDS011;37855;53.204;6.568;2022-08-21T03:39:30;10.52;;;3.40;;
51800;SDS011;37855;53.204;6.568;2022-08-21T03:41:55;8.13;;;2.72;;
51800;SDS011;37855;53.204;6.568;2022-08-21T03:44:21;10.95;;;3.10;;
51800;SDS011;37855;53.204;6.568;2022-08-21T03:46:47;7.35;;;3.00;;
51800;SDS011;37855;53.204;6.568;2022-08-21T03:49:16;10.52;;;3.33;;
51800;SDS011;37855;53.204;6.568;2022-08-21T03:51:42;10.00;;;2.90;;
51800;SDS011;37855;53.204;6.568;2022-08-21T03:54:08;9.02;;;3.70;;
51800;SDS011;37855;53.204;6.568;2022-08-21T03:56:33;8.48;;;2.90;;
51800;SDS011;37855;53.204;6.568;2022-08-21T03:58:59;7.30;;;3.08;;
51800;SDS011;37855;53.204;6.568;2022-08-21T04:01:24;9.05;;;3.15;;
51800;SDS011;37855;53.204;6.568;2022-08-21T04:03:50;10.20;;;3.72;;
51800;SDS011;37855;53.204;6.568;2022-08-21T04:06:16;7.93;;;3.10;;
51800;SDS011;37855;53.204;6.568;2022-08-21T04:08:42;6.95;;;3.00;;
51800;SDS011;37855;53.204;6.568;2022-08-21T04:11:08;8.57;;;3.28;;
51800;SDS011;37855;53.204;6.568;2022-08-21T04:13:37;7.93;;;2.88;;
51800;SDS011;37855;53.204;6.568;2022-08-21T04:16:03;6.72;;;3.10;;
51800;SDS011;37855;53.204;6.568;2022-08-21T04:18:29;14.52;;;3.50;;
51800;SDS011;37855;53.204;6.568;2022-08-21T04:20:56;7.20;;;3.10;;
51800;SDS011;37855;53.204;6.568;2022-08-21T04:23:23;7.68;;;2.70;;
51800;SDS011;37855;53.204;6.568;2022-08-21T04:25:53;6.18;;;2.70;;
51800;SDS011;37855;53.204;6.568;2022-08-21T04:28:20;10.40;;;3.33;;
51800;SDS011;37855;53.204;6.568;2022-08-21T04:30:47;8.13;;;3.00;;
51800;SDS011;37855;53.204;6.568;2022-08-21T04:33:15;9.45;;;3.20;;
51800;SDS011;37855;53.204;6.568;2022-08-21T04:35:41;8.60;;;3.30;;
51800;SDS011;37855;53.204;6.568;2022-08-21T04:38:07;7.15;;;2.88;;
51800;SDS011;37855;53.204;6.568;2022-08-21T04:40:33;7.78;;;3.00;;
51800;SDS011;37855;53.204;6.568;2022-08-21T04:43:01;8.43;;;3.28;;
51800;SDS011;37855;53.204;6.568;2022-08-21T04:45:29;8.75;;;3.17;;
51800;SDS011;37855;53.204;6.568;2022-08-21T04:47:58;8.27;;;3.13;;
51800;SDS011;37855;53.204;6.568;2022-08-21T04:50:29;8.77;;;3.35;;
51800;SDS011;37855;53.204;6.568;2022-08-21T04:53:15;7.57;;;3.17;;
51800;SDS011;37855;53.204;6.568;2022-08-21T04:55:48;6.95;;;2.80;;
51800;SDS011;37855;53.204;6.568;2022-08-21T04:58:15;8.23;;;2.95;;
51800;SDS011;37855;53.204;6.568;2022-08-21T05:00:44;12.68;;;3.42;;
51800;SDS011;37855;53.204;6.568;2022-08-21T05:03:10;9.13;;;2.88;;
51800;SDS011;37855;53.204;6.568;2022-08-21T05:05:37;5.55;;;2.90;;
51800;SDS011;37855;53.204;6.568;2022-08-21T05:08:05;7.90;;;3.08;;
51800;SDS011;37855;53.204;6.568;2022-08-21T05:10:34;8.98;;;3.17;;
51800;SDS011;37855;53.204;6.568;2022-08-21T05:13:00;9.20;;;3.47;;
51800;SDS011;37855;53.204;6.568;2022-08-21T05:15:26;11.63;;;3.42;;
51800;SDS011;37855;53.204;6.568;2022-08-21T05:17:52;9.00;;;3.42;;
51800;SDS011;37855;53.204;6.568;2022-08-21T05:20:18;8.30;;;3.25;;
51800;SDS011;37855;53.204;6.568;2022-08-21T05:22:44;8.05;;;2.70;;
51800;SDS011;37855;53.204;6.568;2022-08-21T05:25:11;7.80;;;3.22;;
51800;SDS011;37855;53.204;6.568;2022-08-21T05:27:37;7.13;;;2.72;;
51800;SDS011;37855;53.204;6.568;2022-08-21T05:30:03;6.95;;;2.50;;
51800;SDS011;37855;53.204;6.568;2022-08-21T05:32:32;10.07;;;3.35;;
51800;SDS011;37855;53.204;6.568;2022-08-21T05:34:58;9.00;;;2.58;;
51800;SDS011;37855;53.204;6.568;2022-08-21T05:37:24;10.20;;;3.28;;
51800;SDS011;37855;53.204;6.568;2022-08-21T05:39:49;13.05;;;3.35;;
51800;SDS011;37855;53.204;6.568;2022-08-21T05:42:15;7.85;;;2.65;;
51800;SDS011;37855;53.204;6.568;2022-08-21T05:44:41;7.93;;;2.72;;
51800;SDS011;37855;53.204;6.568;2022-08-21T05:47:08;8.65;;;2.60;;
51800;SDS011;37855;53.204;6.568;2022-08-21T05:49:34;11.13;;;3.45;;
51800;SDS011;37855;53.204;6.568;2022-08-21T05:52:01;10.85;;;2.70;;
51800;SDS011;37855;53.204;6.568;2022-08-21T05:54:27;12.00;;;3.15;;
51800;SDS011;37855;53.204;6.568;2022-08-21T05:56:53;10.35;;;2.38;;
51800;SDS011;37855;53.204;6.568;2022-08-21T05:59:19;9.18;;;3.20;;
51800;SDS011;37855;53.204;6.568;2022-08-21T06:01:45;6.55;;;2.55;;
51800;SDS011;37855;53.204;6.568;2022-08-21T06:04:11;9.85;;;2.90;;
51800;SDS011;37855;53.204;6.568;2022-08-21T06:06:40;7.55;;;2.42;;
51800;SDS011;37855;53.204;6.568;2022-08-21T06:09:06;8.57;;;2.90;;
51800;SDS011;37855;53.204;6.568;2022-08-21T06:11:32;7.38;;;2.97;;
51800;SDS011;37855;53.204;6.568;2022-08-21T06:13:58;10.50;;;3.08;;
51800;SDS011;37855;53.204;6.568;2022-08-21T06:16:25;12.00;;;3.30;;
51800;SDS011;37855;53.204;6.568;2022-08-21T06:18:52;8.00;;;2.95;;
51800;SDS011;37855;53.204;6.568;2022-08-21T06:21:18;8.45;;;2.70;;
51800;SDS011;37855;53.204;6.568;2022-08-21T06:23:47;10.45;;;2.75;;
51800;SDS011;37855;53.204;6.568;2022-08-21T06:26:13;7.13;;;2.38;;
51800;SDS011;37855;53.204;6.568;2022-08-21T06:28:39;8.20;;;3.05;;
51800;SDS011;37855;53.204;6.568;2022-08-21T06:33:38;9.45;;;2.60;;
51800;SDS011;37855;53.204;6.568;2022-08-21T06:36:04;8.65;;;2.40;;
51800;SDS011;37855;53.204;6.568;2022-08-21T06:38:32;8.68;;;2.60;;
51800;SDS011;37855;53.204;6.568;2022-08-21T06:40:57;9.88;;;2.60;;
51800;SDS011;37855;53.204;6.568;2022-08-21T06:43:23;8.07;;;2.40;;
51800;SDS011;37855;53.204;6.568;2022-08-21T06:45:49;7.15;;;2.30;;
51800;SDS011;37855;53.204;6.568;2022-08-21T06:48:14;8.27;;;3.25;;
51800;SDS011;37855;53.204;6.568;2022-08-21T06:50:40;8.02;;;2.80;;
51800;SDS011;37855;53.204;6.568;2022-08-21T06:53:07;11.00;;;3.20;;
51800;SDS011;37855;53.204;6.568;2022-08-21T06:55:35;9.65;;;2.70;;
51800;SDS011;37855;53.204;6.568;2022-08-21T06:58:01;12.95;;;2.92;;
51800;SDS011;37855;53.204;6.568;2022-08-21T07:00:29;8.52;;;2.60;;
51800;SDS011;37855;53.204;6.568;2022-08-21T07:02:55;8.43;;;1.92;;
51800;SDS011;37855;53.204;6.568;2022-08-21T07:05:22;11.13;;;2.50;;
51800;SDS011;37855;53.204;6.568;2022-08-21T07:07:50;9.55;;;2.45;;
51800;SDS011;37855;53.204;6.568;2022-08-21T07:10:16;9.90;;;2.80;;
51800;SDS011;37855;53.204;6.568;2022-08-21T07:12:45;7.85;;;2.20;;
51800;SDS011;37855;53.204;6.568;2022-08-21T07:15:10;6.25;;;1.98;;
51800;SDS011;37855;53.204;6.568;2022-08-21T07:17:36;8.70;;;2.20;;
51800;SDS011;37855;53.204;6.568;2022-08-21T07:20:03;10.55;;;2.38;;
51800;SDS011;37855;53.204;6.568;2022-08-21T07:22:29;9.55;;;2.03;;
51800;SDS011;37855;53.204;6.568;2022-08-21T07:24:55;9.75;;;2.50;;
51800;SDS011;37855;53.204;6.568;2022-08-21T07:27:21;11.98;;;2.10;;
51800;SDS011;37855;53.204;6.568;2022-08-21T07:29:46;12.13;;;2.03;;
51800;SDS011;37855;53.204;6.568;2022-08-21T07:32:12;6.90;;;2.03;;
51800;SDS011;37855;53.204;6.568;2022-08-21T07:34:39;9.82;;;2.28;;
51800;SDS011;37855;53.204;6.568;2022-08-21T07:37:06;9.13;;;2.22;;
51800;SDS011;37855;53.204;6.568;2022-08-21T07:39:31;7.60;;;2.05;;
51800;SDS011;37855;53.204;6.568;2022-08-21T07:41:57;16.50;;;2.53;;
51800;SDS011;37855;53.204;6.568;2022-08-21T07:44:22;8.57;;;2.05;;
51800;SDS011;37855;53.204;6.568;2022-08-21T07:46:48;11.27;;;2.47;;
51800;SDS011;37855;53.204;6.568;2022-08-21T07:49:14;6.63;;;1.65;;
51800;SDS011;37855;53.204;6.568;2022-08-21T07:51:40;7.88;;;1.83;;
51800;SDS011;37855;53.204;6.568;2022-08-21T07:54:06;8.98;;;2.10;;
51800;SDS011;37855;53.204;6.568;2022-08-21T07:56:33;9.75;;;1.70;;
51800;SDS011;37855;53.204;6.568;2022-08-21T07:58:59;7.32;;;1.75;;
51800;SDS011;37855;53.204;6.568;2022-08-21T08:01:24;8.98;;;1.92;;
51800;SDS011;37855;53.204;6.568;2022-08-21T08:03:50;9.57;;;2.42;;
51800;SDS011;37855;53.204;6.568;2022-08-21T08:06:17;7.20;;;1.67;;
51800;SDS011;37855;53.204;6.568;2022-08-21T08:08:44;7.13;;;1.70;;
51800;SDS011;37855;53.204;6.568;2022-08-21T08:11:10;6.47;;;1.77;;
51800;SDS011;37855;53.204;6.568;2022-08-21T08:13:44;9.73;;;2.10;;
51800;SDS011;37855;53.204;6.568;2022-08-21T08:16:11;11.63;;;1.90;;
51800;SDS011;37855;53.204;6.568;2022-08-21T08:18:37;9.80;;;1.95;;
51800;SDS011;37855;53.204;6.568;2022-08-21T08:21:04;9.02;;;2.10;;
51800;SDS011;37855;53.204;6.568;2022-08-21T08:23:31;6.93;;;1.95;;
51800;SDS011;37855;53.204;6.568;2022-08-21T08:25:57;8.35;;;1.90;;
51800;SDS011;37855;53.204;6.568;2022-08-21T08:28:23;6.60;;;1.73;;
51800;SDS011;37855;53.204;6.568;2022-08-21T08:30:50;16.63;;;2.15;;
51800;SDS011;37855;53.204;6.568;2022-08-21T08:33:16;12.05;;;2.42;;
51800;SDS011;37855;53.204;6.568;2022-08-21T08:35:46;10.90;;;2.20;;
51800;SDS011;37855;53.204;6.568;2022-08-21T08:38:15;8.70;;;2.22;;
51800;SDS011;37855;53.204;6.568;2022-08-21T08:40:53;10.98;;;2.05;;
51800;SDS011;37855;53.204;6.568;2022-08-21T08:43:49;6.78;;;1.70;;
51800;SDS011;37855;53.204;6.568;2022-08-21T08:46:19;8.57;;;1.90;;
51800;SDS011;37855;53.204;6.568;2022-08-21T08:48:58;8.27;;;1.80;;
51800;SDS011;37855;53.204;6.568;2022-08-21T08:51:51;8.50;;;2.25;;
51800;SDS011;37855;53.204;6.568;2022-08-21T08:54:32;9.70;;;1.80;;
51800;SDS011;37855;53.204;6.568;2022-08-21T08:57:03;9.98;;;2.17;;
51800;SDS011;37855;53.204;6.568;2022-08-21T08:59:41;10.27;;;2.35;;
51800;SDS011;37855;53.204;6.568;2022-08-21T09:02:12;11.07;;;2.50;;
51800;SDS011;37855;53.204;6.568;2022-08-21T09:04:39;11.15;;;2.60;;
51800;SDS011;37855;53.204;6.568;2022-08-21T09:09:55;10.40;;;2.50;;
51800;SDS011;37855;53.204;6.568;2022-08-21T09:12:56;11.70;;;2.10;;
51800;SDS011;37855;53.204;6.568;2022-08-21T09:20:52;10.23;;;2.60;;
51800;SDS011;37855;53.204;6.568;2022-08-21T09:28:36;9.88;;;2.20;;
51800;SDS011;37855;53.204;6.568;2022-08-21T09:31:05;11.60;;;2.50;;
51800;SDS011;37855;53.204;6.568;2022-08-21T09:33:33;10.20;;;2.28;;
51800;SDS011;37855;53.204;6.568;2022-08-21T09:35:59;10.93;;;1.98;;
51800;SDS011;37855;53.204;6.568;2022-08-21T09:38:27;9.98;;;2.22;;
51800;SDS011;37855;53.204;6.568;2022-08-21T09:40:59;11.50;;;2.35;;
51800;SDS011;37855;53.204;6.568;2022-08-21T09:43:33;12.35;;;2.00;;
51800;SDS011;37855;53.204;6.568;2022-08-21T09:46:01;9.48;;;2.13;;
51800;SDS011;37855;53.204;6.568;2022-08-21T09:48:29;9.43;;;2.22;;
51800;SDS011;37855;53.204;6.568;2022-08-21T09:51:09;8.85;;;2.13;;
51800;SDS011;37855;53.204;6.568;2022-08-21T09:53:38;12.57;;;2.58;;
51800;SDS011;37855;53.204;6.568;2022-08-21T09:56:17;10.27;;;2.50;;
51800;SDS011;37855;53.204;6.568;2022-08-21T09:59:33;9.25;;;2.28;;
51800;SDS011;37855;53.204;6.568;2022-08-21T10:02:00;8.52;;;2.13;;
51800;SDS011;37855;53.204;6.568;2022-08-21T10:04:32;9.63;;;2.03;;
51800;SDS011;37855;53.204;6.568;2022-08-21T10:07:10;8.95;;;2.10;;
51800;SDS011;37855;53.204;6.568;2022-08-21T10:09:39;11.15;;;2.25;;
51800;SDS011;37855;53.204;6.568;2022-08-21T10:12:17;10.13;;;2.25;;
51800;SDS011;37855;53.204;6.568;2022-08-21T10:20:20;12.40;;;2.50;;
51800;SDS011;37855;53.204;6.568;2022-08-21T10:25:35;9.55;;;2.38;;
51800;SDS011;37855;53.204;6.568;2022-08-21T10:28:07;13.20;;;2.42;;
51800;SDS011;37855;53.204;6.568;2022-08-21T10:41:35;12.48;;;2.10;;
51800;SDS011;37855;53.204;6.568;2022-08-21T10:44:12;8.27;;;1.90;;
51800;SDS011;37855;53.204;6.568;2022-08-21T10:55:19;9.52;;;2.05;;
51800;SDS011;37855;53.204;6.568;2022-08-21T11:03:12;11.23;;;2.22;;
51800;SDS011;37855;53.204;6.568;2022-08-21T11:05:54;10.20;;;2.35;;
51800;SDS011;37855;53.204;6.568;2022-08-21T11:08:35;11.93;;;2.33;;
51800;SDS011;37855;53.204;6.568;2022-08-21T11:11:06;12.85;;;2.30;;
51800;SDS011;37855;53.204;6.568;2022-08-21T11:18:50;7.82;;;2.10;;
51800;SDS011;37855;53.204;6.568;2022-08-21T11:21:29;10.98;;;2.40;;
51800;SDS011;37855;53.204;6.568;2022-08-21T11:29:38;11.45;;;2.50;;
51800;SDS011;37855;53.204;6.568;2022-08-21T11:35:45;11.82;;;2.47;;
51800;SDS011;37855;53.204;6.568;2022-08-21T11:38:42;6.65;;;2.03;;
51800;SDS011;37855;53.204;6.568;2022-08-21T11:41:22;14.45;;;2.55;;
51800;SDS011;37855;53.204;6.568;2022-08-21T11:44:02;8.05;;;2.40;;
51800;SDS011;37855;53.204;6.568;2022-08-21T11:56:55;11.10;;;2.10;;
51800;SDS011;37855;53.204;6.568;2022-08-21T11:59:32;11.07;;;2.38;;
51800;SDS011;37855;53.204;6.568;2022-08-21T12:02:06;9.50;;;2.30;;
51800;SDS011;37855;53.204;6.568;2022-08-21T12:09:58;8.55;;;2.10;;
51800;SDS011;37855;53.204;6.568;2022-08-21T12:12:27;11.20;;;2.28;;
51800;SDS011;37855;53.204;6.568;2022-08-21T12:17:52;7.35;;;2.03;;
51800;SDS011;37855;53.204;6.568;2022-08-21T12:23:14;10.02;;;2.15;;
51800;SDS011;37855;53.204;6.568;2022-08-21T12:26:03;7.93;;;1.70;;
51800;SDS011;37855;53.204;6.568;2022-08-21T12:28:29;9.07;;;1.75;;
51800;SDS011;37855;53.204;6.568;2022-08-21T12:30:56;5.80;;;1.83;;
51800;SDS011;37855;53.204;6.568;2022-08-21T12:33:24;8.65;;;1.98;;
51800;SDS011;37855;53.204;6.568;2022-08-21T12:36:11;8.07;;;1.92;;
51800;SDS011;37855;53.204;6.568;2022-08-21T12:38:45;5.50;;;1.48;;
51800;SDS011;37855;53.204;6.568;2022-08-21T12:41:18;6.28;;;1.90;;
51800;SDS011;37855;53.204;6.568;2022-08-21T12:44:05;8.50;;;1.92;;
51800;SDS011;37855;53.204;6.568;2022-08-21T12:46:48;8.25;;;2.00;;
51800;SDS011;37855;53.204;6.568;2022-08-21T12:49:27;7.07;;;1.77;;
51800;SDS011;37855;53.204;6.568;2022-08-21T12:54:49;9.27;;;1.90;;
51800;SDS011;37855;53.204;6.568;2022-08-21T12:57:20;6.30;;;1.90;;
51800;SDS011;37855;53.204;6.568;2022-08-21T12:59:56;5.90;;;1.77;;
51800;SDS011;37855;53.204;6.568;2022-08-21T13:02:25;8.52;;;1.75;;
51800;SDS011;37855;53.204;6.568;2022-08-21T13:04:55;8.75;;;1.90;;
51800;SDS011;37855;53.204;6.568;2022-08-21T13:07:27;8.00;;;2.20;;
51800;SDS011;37855;53.204;6.568;2022-08-21T13:09:56;8.68;;;1.80;;
51800;SDS011;37855;53.204;6.568;2022-08-21T13:12:24;8.55;;;1.60;;
51800;SDS011;37855;53.204;6.568;2022-08-21T13:14:52;6.97;;;1.52;;
51800;SDS011;37855;53.204;6.568;2022-08-21T13:17:23;7.82;;;1.63;;
51800;SDS011;37855;53.204;6.568;2022-08-21T13:19:57;7.45;;;1.65;;
51800;SDS011;37855;53.204;6.568;2022-08-21T13:22:25;5.53;;;1.55;;
51800;SDS011;37855;53.204;6.568;2022-08-21T13:24:51;5.28;;;1.50;;
51800;SDS011;37855;53.204;6.568;2022-08-21T13:27:20;8.55;;;1.77;;
51800;SDS011;37855;53.204;6.568;2022-08-21T13:29:48;8.27;;;1.83;;
51800;SDS011;37855;53.204;6.568;2022-08-21T13:32:25;6.03;;;1.80;;
51800;SDS011;37855;53.204;6.568;2022-08-21T13:34:53;6.47;;;1.55;;
51800;SDS011;37855;53.204;6.568;2022-08-21T13:37:19;8.25;;;1.80;;
51800;SDS011;37855;53.204;6.568;2022-08-21T13:39:49;7.53;;;1.92;;
51800;SDS011;37855;53.204;6.568;2022-08-21T13:42:18;8.75;;;1.77;;
51800;SDS011;37855;53.204;6.568;2022-08-21T13:44:46;7.95;;;1.70;;
51800;SDS011;37855;53.204;6.568;2022-08-21T13:47:14;7.60;;;1.50;;
51800;SDS011;37855;53.204;6.568;2022-08-21T13:49:47;11.50;;;2.03;;
51800;SDS011;37855;53.204;6.568;2022-08-21T13:52:23;7.30;;;1.60;;
51800;SDS011;37855;53.204;6.568;2022-08-21T13:57:26;7.07;;;2.00;;
51800;SDS011;37855;53.204;6.568;2022-08-21T14:02:45;5.82;;;1.45;;
51800;SDS011;37855;53.204;6.568;2022-08-21T14:05:36;7.72;;;1.90;;
51800;SDS011;37855;53.204;6.568;2022-08-21T14:08:12;7.25;;;1.85;;
51800;SDS011;37855;53.204;6.568;2022-08-21T14:10:44;8.57;;;1.98;;
51800;SDS011;37855;53.204;6.568;2022-08-21T14:16:11;8.32;;;1.80;;
51800;SDS011;37855;53.204;6.568;2022-08-21T14:21:31;6.25;;;1.60;;
51800;SDS011;37855;53.204;6.568;2022-08-21T14:24:06;11.82;;;1.58;;
51800;SDS011;37855;53.204;6.568;2022-08-21T14:26:43;6.93;;;1.60;;
51800;SDS011;37855;53.204;6.568;2022-08-21T14:29:12;6.07;;;1.77;;
51800;SDS011;37855;53.204;6.568;2022-08-21T14:31:40;6.45;;;1.60;;
51800;SDS011;37855;53.204;6.568;2022-08-21T14:34:07;7.28;;;1.63;;
51800;SDS011;37855;53.204;6.568;2022-08-21T14:36:38;8.73;;;1.83;;
51800;SDS011;37855;53.204;6.568;2022-08-21T14:39:04;6.47;;;1.48;;
51800;SDS011;37855;53.204;6.568;2022-08-21T14:41:30;7.20;;;1.40;;
51800;SDS011;37855;53.204;6.568;2022-08-21T14:43:55;7.32;;;1.60;;
51800;SDS011;37855;53.204;6.568;2022-08-21T14:46:23;6.93;;;1.80;;
51800;SDS011;37855;53.204;6.568;2022-08-21T14:48:51;7.05;;;1.63;;
51800;SDS011;37855;53.204;6.568;2022-08-21T14:51:16;6.80;;;2.03;;
51800;SDS011;37855;53.204;6.568;2022-08-21T14:53:42;6.63;;;1.40;;
51800;SDS011;37855;53.204;6.568;2022-08-21T14:56:08;5.25;;;1.48;;
51800;SDS011;37855;53.204;6.568;2022-08-21T14:58:36;6.78;;;1.60;;
51800;SDS011;37855;53.204;6.568;2022-08-21T15:01:04;5.00;;;1.38;;
51800;SDS011;37855;53.204;6.568;2022-08-21T15:03:34;7.00;;;1.48;;
51800;SDS011;37855;53.204;6.568;2022-08-21T15:06:00;6.38;;;1.77;;
51800;SDS011;37855;53.204;6.568;2022-08-21T15:08:26;7.68;;;1.60;;
51800;SDS011;37855;53.204;6.568;2022-08-21T15:10:52;9.05;;;1.70;;
51800;SDS011;37855;53.204;6.568;2022-08-21T15:13:20;8.40;;;1.80;;
51800;SDS011;37855;53.204;6.568;2022-08-21T15:15:47;9.38;;;1.80;;
51800;SDS011;37855;53.204;6.568;2022-08-21T15:18:13;6.47;;;1.70;;
51800;SDS011;37855;53.204;6.568;2022-08-21T15:20:39;7.72;;;1.73;;
51800;SDS011;37855;53.204;6.568;2022-08-21T15:23:06;6.38;;;1.70;;
51800;SDS011;37855;53.204;6.568;2022-08-21T15:25:33;8.27;;;1.70;;
51800;SDS011;37855;53.204;6.568;2022-08-21T15:28:00;6.10;;;1.50;;
51800;SDS011;37855;53.204;6.568;2022-08-21T15:30:30;8.18;;;1.83;;
51800;SDS011;37855;53.204;6.568;2022-08-21T15:32:56;7.43;;;1.70;;
51800;SDS011;37855;53.204;6.568;2022-08-21T15:35:22;6.00;;;1.75;;
51800;SDS011;37855;53.204;6.568;2022-08-21T15:37:50;7.35;;;1.70;;
51800;SDS011;37855;53.204;6.568;2022-08-21T15:40:16;7.65;;;1.60;;
51800;SDS011;37855;53.204;6.568;2022-08-21T15:42:41;8.85;;;1.63;;
51800;SDS011;37855;53.204;6.568;2022-08-21T15:45:08;8.73;;;1.60;;
51800;SDS011;37855;53.204;6.568;2022-08-21T15:47:37;8.45;;;1.80;;
51800;SDS011;37855;53.204;6.568;2022-08-21T15:50:05;10.52;;;2.55;;
51800;SDS011;37855;53.204;6.568;2022-08-21T15:52:32;7.93;;;2.05;;
51800;SDS011;37855;53.204;6.568;2022-08-21T15:54:59;9.93;;;2.10;;
51800;SDS011;37855;53.204;6.568;2022-08-21T15:57:25;8.48;;;1.98;;
51800;SDS011;37855;53.204;6.568;2022-08-21T15:59:56;7.50;;;2.00;;
51800;SDS011;37855;53.204;6.568;2022-08-21T16:02:28;11.25;;;1.88;;
51800;SDS011;37855;53.204;6.568;2022-08-21T16:04:56;9.27;;;2.10;;
51800;SDS011;37855;53.204;6.568;2022-08-21T16:07:22;7.93;;;1.80;;
51800;SDS011;37855;53.204;6.568;2022-08-21T16:09:48;9.45;;;1.85;;
51800;SDS011;37855;53.204;6.568;2022-08-21T16:12:17;7.60;;;1.70;;
51800;SDS011;37855;53.204;6.568;2022-08-21T16:14:47;7.05;;;2.15;;
51800;SDS011;37855;53.204;6.568;2022-08-21T16:17:14;5.40;;;1.50;;
51800;SDS011;37855;53.204;6.568;2022-08-21T16:19:40;11.30;;;2.58;;
51800;SDS011;37855;53.204;6.568;2022-08-21T16:22:06;7.85;;;1.85;;
51800;SDS011;37855;53.204;6.568;2022-08-21T16:24:32;10.45;;;1.85;;
51800;SDS011;37855;53.204;6.568;2022-08-21T16:26:58;10.00;;;1.75;;
51800;SDS011;37855;53.204;6.568;2022-08-21T16:29:26;14.25;;;2.55;;
51800;SDS011;37855;53.204;6.568;2022-08-21T16:31:55;8.57;;;1.80;;
51800;SDS011;37855;53.204;6.568;2022-08-21T16:34:21;9.90;;;1.90;;